Terminal Aerodrome Forecast
Issued by NWS Duluth, MN

Home | Current Version | Previous Version | Text Only | Print | Product List | Glossary On
Versions: 1 2 3 4 5 6 7 8 9 10 11 12 13 14 15 16 17 18 19 20 21 22 23
530
FTUS43 KDLH 160149 AAA
TAFDLH
TAF AMD
KDLH 160149Z 1602/1624 34014G22KT 5SM -SN BLSN SCT018 BKN050
      TEMPO 1602/1606 3SM -SN BKN018
     FM160600 35012KT P6SM SCT018 BKN025
     FM160800 33010KT P6SM SCT025
     FM161500 31008KT P6SM SCT020
     FM162000 28008KT P6SM SCT100 BKN150=

USA.gov is the U.S. government's official web portal to all federal, state and local government web resources and services.